Time;durP1;ratioP1;P1;durP2;ratioP2;P2;SDS_P1;SDS_P2;PMS_P1;PMS_P2;Temp;Humidity;BMP_temperature;BMP_pressure;BME280_temperature;BME280_humidity;BME280_pressure;Samples;Min_cycle;Max_cycle;Signal;HPM_P1;HPM_P2
2022/07/21 00:01:02;;;;;;;2.78;1.52;;;29.40;50.20;;;;;;6216229;23;20047;-75
2022/07/21 00:03:28;;;;;;;2.15;1.45;;;29.40;50.10;;;;;;6188767;23;20789;-75
2022/07/21 00:05:53;;;;;;;3.83;1.60;;;29.40;49.80;;;;;;6215483;23;20000;-76
2022/07/21 00:08:19;;;;;;;2.75;1.40;;;29.40;49.90;;;;;;6216364;23;20035;-76
2022/07/21 00:10:45;;;;;;;3.45;1.40;;;29.40;49.70;;;;;;6215514;23;20012;-76
2022/07/21 00:13:11;;;;;;;2.05;1.52;;;29.40;49.30;;;;;;6215604;23;20000;-75
2022/07/21 00:15:36;;;;;;;3.47;1.83;;;29.40;48.70;;;;;;6215190;23;20051;-76
2022/07/21 00:18:02;;;;;;;5.65;1.50;;;29.40;48.30;;;;;;6216624;23;20005;-75
2022/07/21 00:20:30;;;;;;;2.78;1.75;;;29.40;48.20;;;;;;6215828;23;20411;-75
2022/07/21 00:22:56;;;;;;;2.83;1.48;;;29.40;48.20;;;;;;6216684;23;20001;-75
2022/07/21 00:25:22;;;;;;;2.30;1.50;;;29.30;48.10;;;;;;6216162;23;20319;-75
2022/07/21 00:27:47;;;;;;;6.45;1.90;;;29.30;48.30;;;;;;6216253;23;19997;-75
2022/07/21 00:30:14;;;;;;;3.47;1.90;;;29.30;48.10;;;;;;6216119;23;20011;-75
2022/07/21 00:32:40;;;;;;;2.35;1.35;;;29.30;47.90;;;;;;6216560;23;20058;-75
2022/07/21 00:35:08;;;;;;;1.98;1.52;;;29.30;47.70;;;;;;6216088;23;20007;-75
2022/07/21 00:37:34;;;;;;;2.95;1.60;;;29.30;47.50;;;;;;6190389;23;20033;-74
2022/07/21 00:40:00;;;;;;;2.35;1.40;;;29.30;47.50;;;;;;6215427;23;20021;-75
2022/07/21 00:42:30;;;;;;;1.52;1.05;;;29.30;47.50;;;;;;6216534;23;20033;-74
2022/07/21 00:44:56;;;;;;;3.15;1.60;;;29.30;47.90;;;;;;6216669;23;20004;-74
2022/07/21 00:47:27;;;;;;;3.42;1.77;;;29.30;48.10;;;;;;6216305;23;20423;-75
2022/07/21 00:49:57;;;;;;;2.88;1.30;;;29.30;48.20;;;;;;6216375;23;20004;-74
2022/07/21 00:52:22;;;;;;;4.13;1.20;;;29.30;48.20;;;;;;6216193;23;20118;-74
2022/07/21 00:54:48;;;;;;;4.65;1.50;;;29.20;48.10;;;;;;6216762;23;20388;-74
2022/07/21 00:57:15;;;;;;;1.98;1.60;;;29.20;47.80;;;;;;6216408;23;20005;-74
2022/07/21 00:59:43;;;;;;;2.30;1.75;;;29.20;47.90;;;;;;6216513;23;20016;-74
2022/07/21 01:02:10;;;;;;;2.15;1.52;;;29.20;47.80;;;;;;6215889;23;20032;-74
2022/07/21 01:04:36;;;;;;;4.22;1.55;;;29.20;47.60;;;;;;6216451;23;20000;-74
2022/07/21 01:07:03;;;;;;;3.67;1.35;;;29.20;47.90;;;;;;6215984;23;20024;-74
2022/07/21 01:09:29;;;;;;;2.47;1.63;;;29.20;48.30;;;;;;6216144;23;20015;-74
2022/07/21 01:11:55;;;;;;;2.10;1.80;;;29.10;48.60;;;;;;6216230;23;20083;-74
2022/07/21 01:14:21;;;;;;;3.80;1.50;;;29.10;49.00;;;;;;6216019;23;20008;-74
2022/07/21 01:16:47;;;;;;;2.05;1.42;;;29.10;49.40;;;;;;6215811;23;20031;-75
2022/07/21 01:19:12;;;;;;;3.35;1.70;;;29.10;49.30;;;;;;6215562;23;20024;-75
2022/07/21 01:21:44;;;;;;;1.73;1.20;;;29.00;48.90;;;;;;6215226;23;20746;-75
2022/07/21 01:24:10;;;;;;;2.08;1.50;;;29.00;48.60;;;;;;6215408;23;20431;-75
2022/07/21 01:26:42;;;;;;;3.00;1.75;;;29.00;48.50;;;;;;6215800;23;20004;-74
2022/07/21 01:29:09;;;;;;;2.20;1.60;;;29.00;48.70;;;;;;6215033;23;20001;-73
2022/07/21 01:31:36;;;;;;;2.85;1.50;;;29.00;48.70;;;;;;6215605;23;20054;-76
2022/07/21 01:34:02;;;;;;;3.30;1.50;;;29.00;48.90;;;;;;6215504;23;20009;-76
2022/07/21 01:36:28;;;;;;;1.77;1.50;;;29.00;49.20;;;;;;6215896;23;20000;-75
2022/07/21 01:41:38;;;;;;;3.20;1.73;;;29.00;49.10;;;;;;6215751;23;20020;-75
2022/07/21 01:44:06;;;;;;;4.07;1.48;;;28.90;48.90;;;;;;6215087;23;19996;-75
2022/07/21 01:46:36;;;;;;;5.15;1.40;;;28.90;49.30;;;;;;6215433;23;20025;-75
2022/07/21 01:49:03;;;;;;;2.28;1.30;;;28.90;49.00;;;;;;6216018;23;20051;-75
2022/07/21 01:51:29;;;;;;;8.65;2.15;;;28.90;48.90;;;;;;6214652;23;20034;-75
2022/07/21 01:53:55;;;;;;;5.50;1.70;;;28.90;49.10;;;;;;6215145;23;20076;-75
2022/07/21 01:56:22;;;;;;;2.80;1.75;;;28.90;49.10;;;;;;6189336;23;20008;-75
2022/07/21 01:58:49;;;;;;;2.28;1.98;;;28.90;49.00;;;;;;6215638;23;20005;-75
2022/07/21 02:01:16;;;;;;;3.65;1.70;;;28.90;49.20;;;;;;6215237;23;20071;-75
2022/07/21 02:03:43;;;;;;;3.20;1.77;;;28.80;49.20;;;;;;6215024;23;20038;-75
2022/07/21 02:06:09;;;;;;;4.57;2.17;;;28.80;49.40;;;;;;6215741;23;20035;-76
2022/07/21 02:08:35;;;;;;;2.47;1.83;;;28.80;49.60;;;;;;6215109;23;19997;-75
2022/07/21 02:11:01;;;;;;;2.63;1.63;;;28.80;49.70;;;;;;6215192;23;20008;-75
2022/07/21 02:13:27;;;;;;;2.95;1.90;;;28.70;49.80;;;;;;6215063;23;20004;-76
2022/07/21 02:15:52;;;;;;;4.10;1.92;;;28.70;49.80;;;;;;6215787;23;20027;-76
2022/07/21 02:18:19;;;;;;;3.97;1.90;;;28.70;50.10;;;;;;6215494;23;20055;-75
2022/07/21 02:20:47;;;;;;;4.18;2.15;;;28.70;50.30;;;;;;6214952;23;20036;-76
2022/07/21 02:23:13;;;;;;;4.57;2.30;;;28.70;50.50;;;;;;6215668;23;20020;-76
2022/07/21 02:25:39;;;;;;;4.72;2.30;;;28.70;50.50;;;;;;6215469;23;20071;-76
2022/07/21 02:28:05;;;;;;;5.75;2.90;;;28.50;50.60;;;;;;6215161;23;20483;-75
2022/07/21 02:30:31;;;;;;;3.63;3.33;;;28.40;50.90;;;;;;6215100;23;20031;-75
2022/07/21 02:32:56;;;;;;;4.28;3.35;;;28.20;51.10;;;;;;6214799;23;20355;-75
2022/07/21 02:35:22;;;;;;;5.05;3.30;;;28.20;52.00;;;;;;6214575;23;20484;-75
2022/07/21 02:37:48;;;;;;;4.22;2.88;;;28.10;52.00;;;;;;6214716;23;20458;-75
2022/07/21 02:40:13;;;;;;;6.28;3.80;;;28.00;52.20;;;;;;6188511;23;20012;-75
2022/07/21 02:42:39;;;;;;;5.03;2.60;;;27.90;53.10;;;;;;6214359;23;19997;-75
2022/07/21 02:45:09;;;;;;;5.25;2.20;;;27.70;52.60;;;;;;6214826;23;20115;-75
2022/07/21 02:47:58;;;;;;;4.80;2.22;;;27.70;53.10;;;;;;6214809;23;20001;-75
2022/07/21 02:50:27;;;;;;;4.80;2.30;;;27.70;53.50;;;;;;6214838;23;20005;-75
2022/07/21 02:53:13;;;;;;;5.55;2.17;;;27.70;53.50;;;;;;6214964;23;20004;-75
2022/07/21 02:55:39;;;;;;;5.32;2.53;;;27.60;53.90;;;;;;6215253;23;20522;-75
2022/07/21 02:58:08;;;;;;;5.13;2.75;;;27.50;53.90;;;;;;6187956;23;20280;-75
2022/07/21 03:00:36;;;;;;;4.40;2.50;;;27.50;54.10;;;;;;6215388;23;20007;-75
2022/07/21 03:03:03;;;;;;;3.50;2.50;;;27.40;54.20;;;;;;6214335;23;20008;-75
2022/07/21 03:05:29;;;;;;;3.90;2.28;;;27.40;54.50;;;;;;6215311;23;20404;-75
2022/07/21 03:07:55;;;;;;;5.60;2.63;;;27.40;54.80;;;;;;6215141;23;20187;-75
2022/07/21 03:10:21;;;;;;;4.20;2.63;;;27.40;54.90;;;;;;6214803;23;20004;-76
2022/07/21 03:12:46;;;;;;;3.65;2.22;;;27.40;55.00;;;;;;6214770;23;20356;-76
2022/07/21 03:15:12;;;;;;;4.43;2.15;;;27.40;55.10;;;;;;6215050;23;20004;-76
2022/07/21 03:17:38;;;;;;;5.13;2.33;;;27.40;55.20;;;;;;6214860;23;20336;-76
2022/07/21 03:20:04;;;;;;;4.20;2.50;;;27.40;55.30;;;;;;6214768;23;20001;-76
2022/07/21 03:22:30;;;;;;;4.20;2.17;;;27.40;55.40;;;;;;6213815;23;20001;-76
2022/07/21 03:24:55;;;;;;;4.60;2.42;;;27.50;55.70;;;;;;6215296;23;20423;-75
2022/07/21 03:27:21;;;;;;;5.65;2.90;;;27.50;55.70;;;;;;6214901;23;20020;-75
2022/07/21 03:29:47;;;;;;;4.03;2.58;;;27.50;55.50;;;;;;6214715;23;20049;-75
2022/07/21 03:32:12;;;;;;;5.38;3.38;;;27.60;55.30;;;;;;6214438;23;20009;-75
2022/07/21 03:34:38;;;;;;;4.38;2.90;;;27.50;55.20;;;;;;6214901;23;20083;-75
2022/07/21 03:37:04;;;;;;;4.18;2.55;;;27.50;55.20;;;;;;6215316;23;20007;-75
2022/07/21 03:39:29;;;;;;;3.53;2.75;;;27.50;55.40;;;;;;6214702;23;20414;-74
2022/07/21 03:41:55;;;;;;;4.07;2.58;;;27.40;55.50;;;;;;6214881;23;20009;-75
2022/07/21 03:44:21;;;;;;;5.90;3.03;;;27.40;55.60;;;;;;6214167;23;20032;-75
2022/07/21 03:46:46;;;;;;;3.10;2.00;;;27.40;55.80;;;;;;6215231;23;20004;-74
2022/07/21 03:49:18;;;;;;;4.97;2.90;;;27.40;56.00;;;;;;6214323;23;20076;-74
2022/07/21 03:51:44;;;;;;;9.65;3.42;;;27.40;56.00;;;;;;6188373;23;20527;-75
2022/07/21 03:54:10;;;;;;;4.53;2.90;;;27.50;56.10;;;;;;6214632;23;20079;-75
2022/07/21 03:56:36;;;;;;;6.90;2.85;;;27.50;56.00;;;;;;6213541;23;20004;-74
2022/07/21 03:59:01;;;;;;;6.63;2.55;;;27.50;56.00;;;;;;6213825;23;20001;-75
2022/07/21 04:01:27;;;;;;;3.30;2.40;;;27.50;55.90;;;;;;6214317;23;20001;-75
2022/07/21 04:03:53;;;;;;;5.25;2.78;;;27.50;55.90;;;;;;6214355;23;20423;-75
2022/07/21 04:06:18;;;;;;;3.65;2.80;;;27.50;55.80;;;;;;6214391;23;20001;-76
2022/07/21 04:08:47;;;;;;;13.90;2.75;;;27.50;55.70;;;;;;6214110;23;20385;-76
2022/07/21 04:11:13;;;;;;;6.03;2.33;;;27.50;55.70;;;;;;6214907;23;20025;-75
2022/07/21 04:13:38;;;;;;;8.05;3.20;;;27.50;55.70;;;;;;6213562;23;20007;-74
2022/07/21 04:16:04;;;;;;;6.35;2.90;;;27.50;55.80;;;;;;6215924;23;20035;-75
2022/07/21 04:18:30;;;;;;;4.78;2.75;;;27.60;55.90;;;;;;6216785;23;20419;-75
2022/07/21 04:20:56;;;;;;;4.68;2.80;;;27.60;55.80;;;;;;6215929;23;20012;-75
2022/07/21 04:23:22;;;;;;;4.60;3.20;;;27.60;55.90;;;;;;6215884;23;20007;-75
2022/07/21 04:25:47;;;;;;;4.13;2.97;;;27.60;55.90;;;;;;6216669;23;20074;-75
2022/07/21 04:28:13;;;;;;;6.03;2.80;;;27.60;55.90;;;;;;6216274;23;20001;-75
2022/07/21 04:30:39;;;;;;;6.35;3.55;;;27.60;56.10;;;;;;6216698;23;20000;-75
2022/07/21 04:33:06;;;;;;;8.60;5.60;;;27.60;56.30;;;;;;6216299;23;20017;-75
2022/07/21 04:35:32;;;;;;;10.68;6.30;;;27.50;56.10;;;;;;6216664;23;20008;-75
2022/07/21 04:37:57;;;;;;;10.48;6.63;;;27.30;56.00;;;;;;6215541;23;20001;-75
2022/07/21 04:40:23;;;;;;;8.82;5.78;;;27.30;56.30;;;;;;6215775;23;20035;-75
2022/07/21 04:42:49;;;;;;;13.00;5.70;;;27.20;56.40;;;;;;6215665;23;20008;-75
2022/07/21 04:45:17;;;;;;;10.57;5.35;;;27.20;56.50;;;;;;6216208;23;20485;-75
2022/07/21 04:47:52;;;;;;;7.40;5.00;;;27.20;56.50;;;;;;6215954;23;20323;-74
2022/07/21 04:50:19;;;;;;;8.38;4.97;;;27.30;56.70;;;;;;6189113;23;20009;-75
2022/07/21 04:52:45;;;;;;;8.27;5.05;;;27.30;56.60;;;;;;6216222;23;20063;-75
2022/07/21 04:55:12;;;;;;;8.23;4.38;;;27.30;56.40;;;;;;6215689;23;20005;-76
2022/07/21 04:57:44;;;;;;;6.78;4.47;;;27.30;56.40;;;;;;6216076;23;20411;-75
2022/07/21 05:00:12;;;;;;;8.20;4.57;;;27.20;56.40;;;;;;6216342;23;20066;-76
2022/07/21 05:02:39;;;;;;;6.45;3.92;;;27.30;56.80;;;;;;6189357;23;20015;-75
2022/07/21 05:05:06;;;;;;;11.43;4.85;;;27.30;56.90;;;;;;6214573;23;20428;-76
2022/07/21 05:07:32;;;;;;;6.40;4.13;;;27.30;57.00;;;;;;6188624;23;20347;-76
2022/07/21 05:09:58;;;;;;;8.68;3.90;;;27.30;56.90;;;;;;6214790;23;20005;-76
2022/07/21 05:12:25;;;;;;;8.45;4.93;;;27.40;56.80;;;;;;6188929;23;20016;-76
2022/07/21 05:14:51;;;;;;;14.40;5.88;;;27.30;56.90;;;;;;6215373;23;20000;-77
2022/07/21 05:17:17;;;;;;;6.82;4.97;;;27.20;57.00;;;;;;6189892;23;20015;-76
2022/07/21 05:19:45;;;;;;;7.40;4.40;;;27.10;57.50;;;;;;6213564;23;20004;-76
2022/07/21 05:22:11;;;;;;;9.77;3.83;;;27.00;57.70;;;;;;6186644;23;20000;-76
2022/07/21 05:24:36;;;;;;;8.82;4.10;;;26.90;57.40;;;;;;6215858;23;20051;-76
2022/07/21 05:27:02;;;;;;;6.00;3.90;;;27.00;57.90;;;;;;6206932;23;20028;-76
2022/07/21 05:29:28;;;;;;;8.02;3.67;;;27.10;58.00;;;;;;6216129;23;20316;-77
2022/07/21 05:31:54;;;;;;;10.32;4.70;;;27.20;57.90;;;;;;6215306;23;20001;-77
2022/07/21 05:34:19;;;;;;;9.63;4.30;;;27.20;57.40;;;;;;6215854;23;20331;-77
2022/07/21 05:36:45;;;;;;;8.10;3.70;;;27.20;57.40;;;;;;6215419;23;20005;-76
2022/07/21 05:39:10;;;;;;;5.70;3.75;;;27.20;57.40;;;;;;6214770;23;20091;-79
2022/07/21 05:41:36;;;;;;;9.52;4.07;;;27.20;57.50;;;;;;6215935;23;20001;-77
2022/07/21 05:44:02;;;;;;;9.13;4.13;;;27.30;57.60;;;;;;6215300;23;20020;-79
2022/07/21 05:46:28;;;;;;;7.13;3.70;;;27.30;57.50;;;;;;6213910;23;20000;-79
2022/07/21 05:48:54;;;;;;;7.93;4.28;;;27.40;57.50;;;;;;6215379;23;20046;-80
2022/07/21 05:51:20;;;;;;;6.18;3.42;;;27.40;57.60;;;;;;6215480;23;20009;-77
2022/07/21 05:53:46;;;;;;;6.35;3.38;;;27.50;57.60;;;;;;6215831;23;20029;-77
2022/07/21 05:56:12;;;;;;;7.28;3.88;;;27.50;57.30;;;;;;6216261;23;20281;-73
2022/07/21 05:58:38;;;;;;;4.60;3.40;;;27.50;57.30;;;;;;6214659;23;20011;-74
2022/07/21 06:01:12;;;;;;;4.90;3.95;;;27.60;57.40;;;;;;6215893;23;20078;-73
2022/07/21 06:03:48;;;;;;;11.88;4.20;;;27.60;57.20;;;;;;6215816;23;20000;-74
2022/07/21 06:06:16;;;;;;;4.13;3.42;;;27.50;56.70;;;;;;6215011;23;20435;-73
2022/07/21 06:08:43;;;;;;;10.23;3.33;;;27.50;56.90;;;;;;6215465;23;20001;-73
2022/07/21 06:11:11;;;;;;;4.70;3.10;;;27.50;57.00;;;;;;6214917;23;20000;-73
2022/07/21 06:13:37;;;;;;;4.28;2.90;;;27.50;57.10;;;;;;6215607;23;20438;-73
2022/07/21 06:16:04;;;;;;;5.00;3.95;;;27.70;57.50;;;;;;6216234;23;20000;-73
2022/07/21 06:18:29;;;;;;;7.22;4.03;;;27.70;57.20;;;;;;6216009;23;20001;-73
2022/07/21 06:20:55;;;;;;;4.65;3.03;;;27.60;56.30;;;;;;6215916;23;20004;-73
2022/07/21 06:23:21;;;;;;;6.30;2.80;;;27.60;56.60;;;;;;6215128;23;20071;-73
2022/07/21 06:25:47;;;;;;;8.13;2.90;;;27.70;57.10;;;;;;6215825;23;20000;-73
2022/07/21 06:28:13;;;;;;;5.45;3.83;;;27.80;57.10;;;;;;6215527;23;20012;-73
2022/07/21 06:30:39;;;;;;;8.98;3.30;;;27.90;57.00;;;;;;6188623;23;20009;-73
2022/07/21 06:33:05;;;;;;;5.30;2.67;;;27.80;56.70;;;;;;6215280;23;20063;-73
2022/07/21 06:35:31;;;;;;;7.30;3.03;;;27.90;56.70;;;;;;6216090;23;20323;-73
2022/07/21 06:37:56;;;;;;;5.53;2.50;;;27.90;56.60;;;;;;6215097;23;20043;-73
2022/07/21 06:40:22;;;;;;;7.07;3.53;;;28.00;56.50;;;;;;6215560;23;20013;-73
2022/07/21 06:42:48;;;;;;;5.88;2.53;;;28.10;56.30;;;;;;6215379;23;20032;-73
2022/07/21 06:45:13;;;;;;;4.65;2.47;;;28.10;56.00;;;;;;6215492;23;20000;-73
2022/07/21 06:47:40;;;;;;;6.55;3.55;;;28.20;55.80;;;;;;6215629;23;20021;-73
2022/07/21 06:50:07;;;;;;;5.22;2.55;;;28.30;55.70;;;;;;6215808;23;20028;-73
2022/07/21 06:52:34;;;;;;;5.32;2.22;;;28.30;55.60;;;;;;6212712;23;20014;-73
2022/07/21 06:55:00;;;;;;;4.50;2.72;;;28.40;55.60;;;;;;6215180;23;20007;-73
2022/07/21 06:57:26;;;;;;;4.38;2.38;;;28.40;55.30;;;;;;6215187;23;20364;-76
2022/07/21 06:59:51;;;;;;;6.07;3.53;;;28.40;55.10;;;;;;6215325;23;20005;-76
2022/07/21 07:02:17;;;;;;;4.40;2.30;;;28.50;54.10;;;;;;6215465;23;20324;-76
2022/07/21 07:04:46;;;;;;;8.48;3.63;;;28.50;54.50;;;;;;6214867;23;20016;-76
2022/07/21 07:07:11;;;;;;;6.35;2.95;;;28.50;54.50;;;;;;6214802;23;20343;-76
2022/07/21 07:09:37;;;;;;;5.22;2.75;;;28.60;54.20;;;;;;6214601;23;20021;-76
2022/07/21 07:12:04;;;;;;;8.50;3.38;;;28.70;54.00;;;;;;6215346;23;20008;-76
2022/07/21 07:14:36;;;;;;;7.68;2.83;;;28.70;53.90;;;;;;6215494;23;20003;-76
2022/07/21 07:17:03;;;;;;;5.95;2.33;;;28.80;54.30;;;;;;6214852;23;20028;-76
2022/07/21 07:19:29;;;;;;;6.03;3.08;;;28.80;53.70;;;;;;6214584;23;20008;-76
2022/07/21 07:21:55;;;;;;;4.50;2.85;;;28.90;53.60;;;;;;6214740;23;20011;-76
2022/07/21 07:24:21;;;;;;;4.25;2.85;;;28.90;53.60;;;;;;6215043;23;20001;-76
2022/07/21 07:26:47;;;;;;;9.18;3.38;;;29.00;53.50;;;;;;6214242;23;20001;-76
2022/07/21 07:29:13;;;;;;;5.05;2.50;;;29.10;53.40;;;;;;6187724;23;20338;-76
2022/07/21 07:31:39;;;;;;;3.45;2.55;;;29.10;52.90;;;;;;6214459;23;20021;-76
2022/07/21 07:34:05;;;;;;;5.85;3.38;;;29.20;52.80;;;;;;6215207;23;20072;-76
2022/07/21 07:36:31;;;;;;;4.70;2.88;;;29.20;52.70;;;;;;6214976;23;20043;-76
2022/07/21 07:38:57;;;;;;;5.22;2.75;;;29.30;52.30;;;;;;6215666;23;20005;-76
2022/07/21 07:41:24;;;;;;;4.78;2.65;;;29.30;51.60;;;;;;6213642;23;20030;-76
2022/07/21 07:43:51;;;;;;;5.35;3.08;;;29.30;50.80;;;;;;6215739;23;20032;-75
2022/07/21 07:46:20;;;;;;;5.38;2.80;;;29.30;49.90;;;;;;6214702;23;20323;-76
2022/07/21 07:48:47;;;;;;;3.60;2.25;;;29.20;48.30;;;;;;6214035;23;20000;-76
2022/07/21 07:51:13;;;;;;;5.40;2.05;;;29.30;49.30;;;;;;6216442;23;20059;-76
2022/07/21 07:53:39;;;;;;;5.88;2.75;;;29.30;48.50;;;;;;6217463;23;20000;-76
2022/07/21 07:56:06;;;;;;;5.22;2.38;;;29.40;48.60;;;;;;6217187;23;20035;-76
2022/07/21 07:58:32;;;;;;;7.57;2.03;;;29.40;48.60;;;;;;6217630;23;20007;-76
2022/07/21 08:00:58;;;;;;;5.90;2.22;;;29.50;48.00;;;;;;6216412;23;20005;-73
2022/07/21 08:03:25;;;;;;;4.20;2.35;;;29.50;47.50;;;;;;6217346;23;20084;-73
2022/07/21 08:05:51;;;;;;;10.05;3.08;;;29.50;46.20;;;;;;6217037;23;20395;-73
2022/07/21 08:08:17;;;;;;;2.08;1.42;;;29.60;46.70;;;;;;6217317;23;19997;-73
2022/07/21 08:10:45;;;;;;;3.15;1.58;;;29.70;47.50;;;;;;6216489;23;20012;-73
2022/07/21 08:13:15;;;;;;;3.05;2.03;;;29.80;47.80;;;;;;6215126;23;20004;-73
2022/07/21 08:15:41;;;;;;;2.95;1.73;;;29.90;47.20;;;;;;6217005;23;20419;-73
2022/07/21 08:18:07;;;;;;;2.47;1.65;;;30.10;47.30;;;;;;6216817;23;20035;-73
2022/07/21 08:20:34;;;;;;;3.13;1.50;;;30.20;46.80;;;;;;6217124;23;20005;-74
2022/07/21 08:23:00;;;;;;;2.22;1.30;;;30.30;45.60;;;;;;6216493;23;20314;-73
2022/07/21 08:25:26;;;;;;;1.75;1.30;;;30.40;45.60;;;;;;6215944;23;20003;-73
2022/07/21 08:27:52;;;;;;;5.20;1.80;;;30.40;45.80;;;;;;6216574;23;20003;-73
2022/07/21 08:30:17;;;;;;;2.28;1.40;;;30.50;44.10;;;;;;6216621;23;20004;-73
2022/07/21 08:32:43;;;;;;;2.50;1.50;;;30.60;45.80;;;;;;6215882;23;20004;-73
2022/07/21 08:35:09;;;;;;;3.53;1.42;;;30.70;46.20;;;;;;6216461;23;20000;-73
2022/07/21 08:37:36;;;;;;;1.95;1.42;;;30.80;46.40;;;;;;6216637;23;20050;-73
2022/07/21 08:40:04;;;;;;;2.75;1.70;;;30.80;46.00;;;;;;6216790;23;20035;-73
2022/07/21 08:42:30;;;;;;;6.70;1.90;;;31.00;43.90;;;;;;6189138;23;20070;-73
2022/07/21 08:44:56;;;;;;;4.90;1.58;;;31.00;45.00;;;;;;6216531;23;20363;-73
2022/07/21 08:47:23;;;;;;;3.80;1.50;;;31.10;43.90;;;;;;6216441;23;20339;-73
2022/07/21 08:49:49;;;;;;;7.45;2.30;;;31.20;44.40;;;;;;6216845;23;20008;-73
2022/07/21 08:52:15;;;;;;;3.95;1.70;;;31.20;42.60;;;;;;6215363;23;20005;-73
2022/07/21 08:54:41;;;;;;;1.95;1.30;;;31.30;43.70;;;;;;6216327;23;20025;-73
2022/07/21 08:57:06;;;;;;;7.90;2.00;;;31.40;44.30;;;;;;6215956;23;20012;-73
2022/07/21 08:59:32;;;;;;;3.05;1.88;;;31.40;43.20;;;;;;6216389;23;20358;-73
2022/07/21 09:01:58;;;;;;;4.03;1.42;;;31.60;43.80;;;;;;6214863;23;20013;-73
2022/07/21 09:04:29;;;;;;;4.90;1.90;;;31.60;43.80;;;;;;6216546;23;20004;-73
2022/07/21 09:07:05;;;;;;;2.28;1.60;;;31.70;42.10;;;;;;6215622;23;20428;-76
2022/07/21 09:09:33;;;;;;;3.45;1.45;;;31.70;43.30;;;;;;6216124;23;20054;-76
2022/07/21 09:11:59;;;;;;;3.50;1.73;;;31.80;42.80;;;;;;6216160;23;20005;-76
2022/07/21 09:14:28;;;;;;;2.03;1.42;;;31.90;43.10;;;;;;6216616;23;20444;-76
2022/07/21 09:17:03;;;;;;;2.70;1.45;;;32.00;42.50;;;;;;6215404;23;20005;-76
2022/07/21 09:19:35;;;;;;;6.00;2.47;;;32.00;43.10;;;;;;6216526;23;20474;-76
2022/07/21 09:22:03;;;;;;;3.35;2.33;;;32.20;43.90;;;;;;6216337;23;20079;-76
2022/07/21 09:24:38;;;;;;;7.90;3.00;;;32.30;44.60;;;;;;6216939;23;20315;-76
2022/07/21 09:27:06;;;;;;;3.63;2.80;;;32.40;45.50;;;;;;6216024;23;20000;-76
2022/07/21 09:29:44;;;;;;;3.97;2.83;;;32.50;45.50;;;;;;6216162;23;20007;-76
2022/07/21 09:32:28;;;;;;;4.75;3.15;;;32.60;46.00;;;;;;6215684;23;19996;-77
2022/07/21 09:35:09;;;;;;;5.30;3.00;;;32.70;45.70;;;;;;6215087;23;19997;-76
2022/07/21 09:37:39;;;;;;;3.33;2.40;;;32.80;45.20;;;;;;6215493;23;19997;-76
2022/07/21 09:40:10;;;;;;;4.10;2.72;;;32.80;45.00;;;;;;6216152;23;20013;-77
2022/07/21 09:42:39;;;;;;;4.05;2.63;;;32.90;43.30;;;;;;6215541;23;20407;-76
2022/07/21 09:45:11;;;;;;;2.63;2.17;;;33.00;44.00;;;;;;6216275;23;20000;-77
2022/07/21 09:47:39;;;;;;;6.82;2.40;;;33.10;44.60;;;;;;6215636;23;20036;-77
2022/07/21 09:50:06;;;;;;;5.65;2.65;;;33.10;44.70;;;;;;6216650;23;20000;-77
2022/07/21 09:52:38;;;;;;;5.20;2.45;;;33.20;43.80;;;;;;6215369;23;20007;-78
2022/07/21 09:55:13;;;;;;;4.65;2.53;;;33.20;44.00;;;;;;6216357;23;20378;-78
2022/07/21 09:57:39;;;;;;;5.07;2.53;;;33.30;43.40;;;;;;6215652;23;20411;-77
2022/07/21 10:00:08;;;;;;;4.68;2.10;;;33.40;43.30;;;;;;6215679;23;20311;-76
2022/07/21 10:02:34;;;;;;;3.47;2.25;;;33.60;42.70;;;;;;6216115;23;20067;-76
2022/07/21 10:05:04;;;;;;;2.63;1.83;;;33.60;42.30;;;;;;6215721;23;20008;-76
2022/07/21 10:07:31;;;;;;;3.08;2.20;;;33.70;42.10;;;;;;6215134;23;20003;-78
2022/07/21 10:09:58;;;;;;;5.28;2.85;;;33.90;41.30;;;;;;6215610;23;20119;-76
2022/07/21 10:12:26;;;;;;;3.53;1.80;;;34.00;41.00;;;;;;6215316;23;20000;-75
2022/07/21 10:14:52;;;;;;;4.50;1.70;;;34.00;39.80;;;;;;6215866;23;20426;-76
2022/07/21 10:17:20;;;;;;;4.45;1.67;;;34.10;40.10;;;;;;6215449;23;20420;-76
2022/07/21 10:20:07;;;;;;;3.92;2.30;;;34.20;38.80;;;;;;6215443;23;20449;-76
2022/07/21 10:22:54;;;;;;;3.25;1.88;;;34.30;38.70;;;;;;6215195;23;20000;-76
2022/07/21 10:25:22;;;;;;;3.05;1.80;;;34.50;38.30;;;;;;6215992;23;20005;-76
2022/07/21 10:28:27;;;;;;;2.55;2.10;;;34.60;38.70;;;;;;6215531;23;20001;-76
2022/07/21 10:30:55;;;;;;;4.38;1.77;;;34.70;39.20;;;;;;6216043;23;20016;-76
2022/07/21 10:33:41;;;;;;;6.75;2.83;;;34.90;39.70;;;;;;6213466;23;20005;-75
2022/07/21 10:36:07;;;;;;;3.72;2.63;;;35.10;39.20;;;;;;6215679;23;20062;-76
2022/07/21 10:41:40;;;;;;;5.10;3.15;;;35.30;39.20;;;;;;6184252;23;20021;-74
2022/07/21 10:44:26;;;;;;;4.15;2.70;;;35.40;39.20;;;;;;6184338;23;20063;-74
2022/07/21 10:46:59;;;;;;;2.95;2.55;;;35.50;37.60;;;;;;6168421;23;20009;-74
2022/07/21 10:49:50;;;;;;;3.53;2.47;;;35.60;38.80;;;;;;6185437;23;20028;-76
2022/07/21 10:52:34;;;;;;;5.03;3.25;;;35.80;38.10;;;;;;6185572;23;20016;-76
2022/07/21 10:55:13;;;;;;;3.05;2.70;;;35.90;38.20;;;;;;6184445;23;20351;-76
2022/07/21 10:58:02;;;;;;;3.70;3.25;;;36.00;37.70;;;;;;6157715;23;20343;-76
2022/07/21 11:00:36;;;;;;;3.90;3.17;;;36.20;36.90;;;;;;6167832;23;20064;-79
2022/07/21 11:03:07;;;;;;;3.55;3.25;;;36.30;36.20;;;;;;6184906;23;20281;-77
2022/07/21 11:05:33;;;;;;;6.55;4.32;;;36.50;36.20;;;;;;6184737;23;20374;-78
2022/07/21 11:08:16;;;;;;;4.88;3.75;;;36.60;36.00;;;;;;6184740;23;20055;-79
2022/07/21 11:10:52;;;;;;;5.32;3.85;;;36.80;35.40;;;;;;6185190;23;20029;-79
2022/07/21 11:13:22;;;;;;;4.82;3.88;;;36.90;35.10;;;;;;6156481;23;20013;-79
2022/07/21 11:15:59;;;;;;;6.35;4.55;;;37.10;34.80;;;;;;6183371;23;20435;-78
2022/07/21 11:18:27;;;;;;;4.50;3.92;;;37.30;33.00;;;;;;6183918;23;20009;-79
2022/07/21 11:21:13;;;;;;;5.53;3.83;;;37.40;33.20;;;;;;6185140;23;20001;-78
2022/07/21 11:23:39;;;;;;;5.45;3.20;;;37.60;33.00;;;;;;6184258;23;20095;-78
2022/07/21 11:26:06;;;;;;;5.65;3.55;;;37.80;33.10;;;;;;6159973;23;20392;-78
2022/07/21 11:28:31;;;;;;;4.93;3.35;;;37.90;33.30;;;;;;6159745;23;20028;-80
2022/07/21 11:31:07;;;;;;;4.03;3.10;;;38.10;32.90;;;;;;6187139;23;20352;-80
2022/07/21 11:33:35;;;;;;;7.90;3.80;;;38.30;32.80;;;;;;6186893;23;20191;-80
2022/07/21 11:36:00;;;;;;;5.90;3.55;;;38.50;32.90;;;;;;6159834;23;20099;-80
2022/07/21 11:38:26;;;;;;;4.70;3.53;;;38.80;32.80;;;;;;6158203;23;20040;-80
2022/07/21 11:40:51;;;;;;;4.03;3.63;;;39.10;32.40;;;;;;6186146;23;20016;-79
2022/07/21 11:43:17;;;;;;;5.45;3.95;;;39.50;32.10;;;;;;6186384;23;20029;-78
2022/07/21 11:46:05;;;;;;;5.63;4.03;;;39.90;31.40;;;;;;6186891;23;20371;-78
2022/07/21 11:48:32;;;;;;;5.78;4.47;;;40.30;30.70;;;;;;6159995;23;20005;-78
2022/07/21 11:51:04;;;;;;;4.72;4.22;;;40.70;30.70;;;;;;6186625;23;20051;-79
2022/07/21 11:53:33;;;;;;;4.22;3.72;;;40.90;30.80;;;;;;6186495;23;20024;-78
2022/07/21 11:55:59;;;;;;;6.90;4.03;;;41.30;30.60;;;;;;6186291;23;20005;-80
2022/07/21 11:58:26;;;;;;;4.57;3.78;;;41.50;30.00;;;;;;6186505;23;20013;-78
2022/07/21 12:01:08;;;;;;;4.97;3.67;;;41.70;29.50;;;;;;6185643;23;20012;-78
2022/07/21 12:03:34;;;;;;;6.28;4.20;;;41.90;29.30;;;;;;6186076;23;20004;-79
2022/07/21 12:06:01;;;;;;;7.43;5.53;;;42.00;29.20;;;;;;6185201;23;19997;-78
2022/07/21 12:08:28;;;;;;;6.07;4.72;;;42.10;29.00;;;;;;6186044;23;20080;-78
2022/07/21 12:11:08;;;;;;;10.27;5.20;;;42.10;29.00;;;;;;6186692;23;20012;-78
2022/07/21 12:13:54;;;;;;;7.38;5.97;;;42.20;28.30;;;;;;6186917;23;20029;-78
2022/07/21 12:16:20;;;;;;;9.20;5.65;;;42.20;27.80;;;;;;6186503;23;20005;-78
2022/07/21 12:18:45;;;;;;;7.47;6.13;;;42.20;28.80;;;;;;6186171;23;20419;-79
2022/07/21 12:21:11;;;;;;;6.60;5.75;;;42.20;28.70;;;;;;6159565;23;20009;-80
2022/07/21 12:23:37;;;;;;;9.40;6.53;;;42.20;28.70;;;;;;6186979;23;20001;-79
2022/07/21 12:26:03;;;;;;;11.05;6.80;;;42.20;28.60;;;;;;6186447;23;20039;-80
2022/07/21 12:28:47;;;;;;;8.07;7.07;;;42.20;28.40;;;;;;6186015;23;20051;-80
2022/07/21 12:31:20;;;;;;;7.43;6.72;;;42.20;27.90;;;;;;6185586;23;20415;-79
2022/07/21 12:33:47;;;;;;;7.75;6.95;;;42.20;28.20;;;;;;6186412;23;20134;-79
2022/07/21 12:36:13;;;;;;;9.05;7.15;;;42.20;28.20;;;;;;6185038;23;19997;-80
2022/07/21 12:38:46;;;;;;;7.85;7.03;;;42.30;28.60;;;;;;6186100;23;20391;-80
2022/07/21 12:41:18;;;;;;;8.27;7.30;;;42.20;27.90;;;;;;6185269;23;20013;-80
2022/07/21 12:43:59;;;;;;;8.55;6.65;;;42.30;27.90;;;;;;6186055;23;20001;-80
2022/07/21 12:46:30;;;;;;;8.57;6.45;;;42.30;28.00;;;;;;6183681;23;20009;-75
2022/07/21 12:49:07;;;;;;;6.00;5.35;;;42.30;27.50;;;;;;6184933;23;19997;-75
2022/07/21 12:51:33;;;;;;;9.00;4.82;;;42.20;27.90;;;;;;6184767;23;20005;-75
2022/07/21 12:53:58;;;;;;;4.85;4.20;;;42.20;27.80;;;;;;6186175;23;20009;-75
2022/07/21 12:56:31;;;;;;;5.55;4.72;;;42.20;28.10;;;;;;6185434;23;20004;-75